sensor_id;sensor_type;location;lat;lon;timestamp;temperature;humidity
11656;DHT22;5884;43.618;1.438;2023-03-01T05:46:29;-0.60;99.90
11656;DHT22;5884;43.618;1.438;2023-03-01T05:48:56;-0.60;99.90
11656;DHT22;5884;43.618;1.438;2023-03-01T05:51:23;-0.60;99.90
11656;DHT22;5884;43.618;1.438;2023-03-01T05:53:51;-0.60;99.90
11656;DHT22;5884;43.618;1.438;2023-03-01T05:56:19;-0.50;99.90
11656;DHT22;5884;43.618;1.438;2023-03-01T05:58:48;-0.50;99.90
11656;DHT22;5884;43.618;1.438;2023-03-01T06:01:15;-0.60;99.90
11656;DHT22;5884;43.618;1.438;2023-03-01T06:03:44;-0.60;99.90
11656;DHT22;5884;43.618;1.438;2023-03-01T06:06:11;-0.60;99.90
11656;DHT22;5884;43.618;1.438;2023-03-01T06:08:38;-0.50;99.90
11656;DHT22;5884;43.618;1.438;2023-03-01T06:11:05;-0.50;99.90
11656;DHT22;5884;43.618;1.438;2023-03-01T06:13:33;-0.50;99.90
11656;DHT22;5884;43.618;1.438;2023-03-01T06:16:00;-0.60;99.90
11656;DHT22;5884;43.618;1.438;2023-03-01T06:18:30;-0.60;99.90
11656;DHT22;5884;43.618;1.438;2023-03-01T06:20:59;-0.60;99.90
11656;DHT22;5884;43.618;1.438;2023-03-01T06:23:27;-0.70;99.90
11656;DHT22;5884;43.618;1.438;2023-03-01T06:25:54;-0.70;99.90
11656;DHT22;5884;43.618;1.438;2023-03-01T06:28:21;-0.70;99.90
11656;DHT22;5884;43.618;1.438;2023-03-01T06:30:50;-0.70;99.90
11656;DHT22;5884;43.618;1.438;2023-03-01T06:33:18;-0.60;99.90
11656;DHT22;5884;43.618;1.438;2023-03-01T06:35:46;-0.60;99.90
11656;DHT22;5884;43.618;1.438;2023-03-01T06:38:14;-0.70;99.90
11656;DHT22;5884;43.618;1.438;2023-03-01T06:40:44;-0.70;99.90
11656;DHT22;5884;43.618;1.438;2023-03-01T06:43:11;-0.70;99.90
11656;DHT22;5884;43.618;1.438;2023-03-01T06:45:39;-0.60;99.90
11656;DHT22;5884;43.618;1.438;2023-03-01T06:48:07;-0.60;99.90
11656;DHT22;5884;43.618;1.438;2023-03-01T06:50:35;-0.60;99.90
11656;DHT22;5884;43.618;1.438;2023-03-01T06:53:03;-0.60;99.90
11656;DHT22;5884;43.618;1.438;2023-03-01T06:55:32;-0.60;99.90
11656;DHT22;5884;43.618;1.438;2023-03-01T06:58:01;-0.60;99.90
11656;DHT22;5884;43.618;1.438;2023-03-01T07:00:29;-0.60;99.90
11656;DHT22;5884;43.618;1.438;2023-03-01T07:02:59;-0.50;99.90
11656;DHT22;5884;43.618;1.438;2023-03-01T07:05:27;-0.50;99.90
11656;DHT22;5884;43.618;1.438;2023-03-01T07:07:55;-0.50;99.90
11656;DHT22;5884;43.618;1.438;2023-03-01T07:10:22;-0.40;99.90
11656;DHT22;5884;43.618;1.438;2023-03-01T07:12:54;-0.40;99.90
11656;DHT22;5884;43.618;1.438;2023-03-01T07:15:22;-0.40;99.90
11656;DHT22;5884;43.618;1.438;2023-03-01T07:17:49;-0.40;99.90
11656;DHT22;5884;43.618;1.438;2023-03-01T07:20:17;-0.40;99.90
11656;DHT22;5884;43.618;1.438;2023-03-01T07:22:44;-0.40;99.90
11656;DHT22;5884;43.618;1.438;2023-03-01T07:25:12;-0.30;99.90
11656;DHT22;5884;43.618;1.438;2023-03-01T07:27:39;-0.30;99.90
11656;DHT22;5884;43.618;1.438;2023-03-01T07:30:09;-0.30;99.90
11656;DHT22;5884;43.618;1.438;2023-03-01T07:32:37;-0.20;99.90
11656;DHT22;5884;43.618;1.438;2023-03-01T07:35:05;-0.20;99.90
11656;DHT22;5884;43.618;1.438;2023-03-01T07:37:33;-0.10;99.90
11656;DHT22;5884;43.618;1.438;2023-03-01T07:40:00;-0.10;99.90
11656;DHT22;5884;43.618;1.438;2023-03-01T07:42:27;-0.10;99.90
11656;DHT22;5884;43.618;1.438;2023-03-01T07:44:54;0.00;99.90
11656;DHT22;5884;43.618;1.438;2023-03-01T07:47:23;0.00;99.90
11656;DHT22;5884;43.618;1.438;2023-03-01T07:49:50;0.00;99.90
11656;DHT22;5884;43.618;1.438;2023-03-01T07:52:17;0.10;99.90
11656;DHT22;5884;43.618;1.438;2023-03-01T07:54:45;0.10;99.90
11656;DHT22;5884;43.618;1.438;2023-03-01T07:57:12;0.20;99.90
11656;DHT22;5884;43.618;1.438;2023-03-01T07:59:39;0.20;99.90
11656;DHT22;5884;43.618;1.438;2023-03-01T08:02:07;0.20;99.90
11656;DHT22;5884;43.618;1.438;2023-03-01T08:04:36;0.30;99.90
11656;DHT22;5884;43.618;1.438;2023-03-01T08:07:05;0.40;99.90
11656;DHT22;5884;43.618;1.438;2023-03-01T08:09:34;0.40;99.90
11656;DHT22;5884;43.618;1.438;2023-03-01T08:12:03;0.50;99.90
11656;DHT22;5884;43.618;1.438;2023-03-01T08:14:31;0.50;99.90
11656;DHT22;5884;43.618;1.438;2023-03-01T08:16:58;0.50;99.90
11656;DHT22;5884;43.618;1.438;2023-03-01T08:19:28;0.60;99.90
11656;DHT22;5884;43.618;1.438;2023-03-01T08:21:57;0.60;99.90
11656;DHT22;5884;43.618;1.438;2023-03-01T08:24:25;0.70;99.90
11656;DHT22;5884;43.618;1.438;2023-03-01T08:26:53;0.70;99.90
11656;DHT22;5884;43.618;1.438;2023-03-01T08:29:20;0.80;99.90
11656;DHT22;5884;43.618;1.438;2023-03-01T08:31:48;0.90;99.90
11656;DHT22;5884;43.618;1.438;2023-03-01T08:34:17;0.90;99.90
11656;DHT22;5884;43.618;1.438;2023-03-01T08:36:45;1.00;99.90
11656;DHT22;5884;43.618;1.438;2023-03-01T08:39:16;1.00;99.90
11656;DHT22;5884;43.618;1.438;2023-03-01T08:41:45;1.10;99.90
11656;DHT22;5884;43.618;1.438;2023-03-01T08:44:14;1.10;99.90
11656;DHT22;5884;43.618;1.438;2023-03-01T08:46:44;1.20;99.90
11656;DHT22;5884;43.618;1.438;2023-03-01T08:49:13;1.30;99.90
11656;DHT22;5884;43.618;1.438;2023-03-01T08:51:41;1.40;99.90
11656;DHT22;5884;43.618;1.438;2023-03-01T08:54:11;1.50;99.90
11656;DHT22;5884;43.618;1.438;2023-03-01T08:56:41;1.50;99.90
11656;DHT22;5884;43.618;1.438;2023-03-01T08:59:10;1.60;99.90
11656;DHT22;5884;43.618;1.438;2023-03-01T09:01:38;1.70;99.90
11656;DHT22;5884;43.618;1.438;2023-03-01T09:04:06;1.70;99.90
11656;DHT22;5884;43.618;1.438;2023-03-01T09:06:34;1.80;99.90
11656;DHT22;5884;43.618;1.438;2023-03-01T09:09:01;1.80;99.90
11656;DHT22;5884;43.618;1.438;2023-03-01T09:11:31;1.90;99.90
11656;DHT22;5884;43.618;1.438;2023-03-01T09:13:59;2.10;99.90
11656;DHT22;5884;43.618;1.438;2023-03-01T09:16:26;2.10;99.90
11656;DHT22;5884;43.618;1.438;2023-03-01T09:18:55;2.30;99.90
11656;DHT22;5884;43.618;1.438;2023-03-01T09:21:23;2.40;99.90
11656;DHT22;5884;43.618;1.438;2023-03-01T09:23:50;2.40;99.90
11656;DHT22;5884;43.618;1.438;2023-03-01T09:26:19;2.50;99.90
11656;DHT22;5884;43.618;1.438;2023-03-01T09:28:51;2.60;99.90
11656;DHT22;5884;43.618;1.438;2023-03-01T09:31:20;2.70;99.90
11656;DHT22;5884;43.618;1.438;2023-03-01T09:33:50;2.70;99.90
11656;DHT22;5884;43.618;1.438;2023-03-01T09:36:20;2.90;99.90
11656;DHT22;5884;43.618;1.438;2023-03-01T09:38:48;2.90;99.90
11656;DHT22;5884;43.618;1.438;2023-03-01T09:41:26;3.10;99.90
11656;DHT22;5884;43.618;1.438;2023-03-01T09:44:24;3.20;99.90
11656;DHT22;5884;43.618;1.438;2023-03-01T09:46:57;3.10;99.90
11656;DHT22;5884;43.618;1.438;2023-03-01T09:49:26;3.20;99.90
11656;DHT22;5884;43.618;1.438;2023-03-01T09:51:59;3.20;99.90
11656;DHT22;5884;43.618;1.438;2023-03-01T09:54:28;3.30;99.90
11656;DHT22;5884;43.618;1.438;2023-03-01T09:57:07;3.40;99.90
11656;DHT22;5884;43.618;1.438;2023-03-01T09:59:56;3.50;99.90
11656;DHT22;5884;43.618;1.438;2023-03-01T10:02:38;3.70;99.90
11656;DHT22;5884;43.618;1.438;2023-03-01T10:05:19;3.70;99.90
11656;DHT22;5884;43.618;1.438;2023-03-01T10:08:00;3.80;99.90
11656;DHT22;5884;43.618;1.438;2023-03-01T10:10:35;4.00;99.90
11656;DHT22;5884;43.618;1.438;2023-03-01T10:13:13;4.00;99.90
11656;DHT22;5884;43.618;1.438;2023-03-01T10:15:50;4.10;99.90
11656;DHT22;5884;43.618;1.438;2023-03-01T10:18:22;4.20;99.90
11656;DHT22;5884;43.618;1.438;2023-03-01T10:20:53;4.10;99.90
11656;DHT22;5884;43.618;1.438;2023-03-01T10:23:24;4.20;99.90
11656;DHT22;5884;43.618;1.438;2023-03-01T10:26:04;4.30;99.90
11656;DHT22;5884;43.618;1.438;2023-03-01T10:28:48;4.20;99.90
11656;DHT22;5884;43.618;1.438;2023-03-01T10:31:24;4.00;99.90
11656;DHT22;5884;43.618;1.438;2023-03-01T10:33:54;4.10;99.90
11656;DHT22;5884;43.618;1.438;2023-03-01T10:36:24;4.20;99.90
11656;DHT22;5884;43.618;1.438;2023-03-01T10:38:52;4.10;99.90
11656;DHT22;5884;43.618;1.438;2023-03-01T10:41:23;4.30;99.90
11656;DHT22;5884;43.618;1.438;2023-03-01T10:43:53;4.40;99.90
11656;DHT22;5884;43.618;1.438;2023-03-01T10:46:25;4.30;99.90
11656;DHT22;5884;43.618;1.438;2023-03-01T10:49:06;4.20;99.90
11656;DHT22;5884;43.618;1.438;2023-03-01T10:51:37;4.30;99.90
11656;DHT22;5884;43.618;1.438;2023-03-01T10:54:16;4.50;99.90
11656;DHT22;5884;43.618;1.438;2023-03-01T10:56:50;4.70;99.90
11656;DHT22;5884;43.618;1.438;2023-03-01T10:59:25;4.60;99.90
11656;DHT22;5884;43.618;1.438;2023-03-01T11:02:15;4.60;99.90
11656;DHT22;5884;43.618;1.438;2023-03-01T11:04:58;4.70;99.90
11656;DHT22;5884;43.618;1.438;2023-03-01T11:07:26;4.50;99.90
11656;DHT22;5884;43.618;1.438;2023-03-01T11:09:54;4.70;99.90
11656;DHT22;5884;43.618;1.438;2023-03-01T11:12:21;4.90;99.90
11656;DHT22;5884;43.618;1.438;2023-03-01T11:14:50;4.90;99.90
11656;DHT22;5884;43.618;1.438;2023-03-01T11:17:24;4.90;99.90
11656;DHT22;5884;43.618;1.438;2023-03-01T11:20:02;4.90;99.90
11656;DHT22;5884;43.618;1.438;2023-03-01T11:22:34;5.00;99.90
11656;DHT22;5884;43.618;1.438;2023-03-01T11:25:03;5.10;99.90
11656;DHT22;5884;43.618;1.438;2023-03-01T11:27:32;5.20;99.90
11656;DHT22;5884;43.618;1.438;2023-03-01T11:30:03;5.30;99.90
11656;DHT22;5884;43.618;1.438;2023-03-01T11:32:39;5.30;99.90
11656;DHT22;5884;43.618;1.438;2023-03-01T11:35:12;5.30;99.90
11656;DHT22;5884;43.618;1.438;2023-03-01T11:37:47;5.40;99.90
11656;DHT22;5884;43.618;1.438;2023-03-01T11:40:25;5.40;99.90
11656;DHT22;5884;43.618;1.438;2023-03-01T11:43:04;5.40;99.90
11656;DHT22;5884;43.618;1.438;2023-03-01T11:45:47;5.40;99.90
11656;DHT22;5884;43.618;1.438;2023-03-01T11:48:43;5.40;99.90
11656;DHT22;5884;43.618;1.438;2023-03-01T11:51:21;5.40;99.90
11656;DHT22;5884;43.618;1.438;2023-03-01T11:54:04;5.60;99.90
11656;DHT22;5884;43.618;1.438;2023-03-01T11:56:38;5.70;99.90
11656;DHT22;5884;43.618;1.438;2023-03-01T12:09:11;6.00;99.90
11656;DHT22;5884;43.618;1.438;2023-03-01T12:12:02;5.90;99.90
11656;DHT22;5884;43.618;1.438;2023-03-01T12:14:49;5.80;99.90
11656;DHT22;5884;43.618;1.438;2023-03-01T12:17:42;5.90;99.90
11656;DHT22;5884;43.618;1.438;2023-03-01T12:20:25;6.00;99.90
11656;DHT22;5884;43.618;1.438;2023-03-01T12:23:15;6.00;99.90
11656;DHT22;5884;43.618;1.438;2023-03-01T12:25:54;6.00;99.90
11656;DHT22;5884;43.618;1.438;2023-03-01T12:28:43;6.20;99.90
11656;DHT22;5884;43.618;1.438;2023-03-01T12:31:53;6.00;99.90
11656;DHT22;5884;43.618;1.438;2023-03-01T12:34:48;6.10;99.90
11656;DHT22;5884;43.618;1.438;2023-03-01T12:37:46;6.00;99.90
11656;DHT22;5884;43.618;1.438;2023-03-01T12:40:40;6.10;99.90
11656;DHT22;5884;43.618;1.438;2023-03-01T12:43:30;6.20;99.90
11656;DHT22;5884;43.618;1.438;2023-03-01T12:46:10;6.30;99.90
11656;DHT22;5884;43.618;1.438;2023-03-01T12:48:55;6.40;99.90
11656;DHT22;5884;43.618;1.438;2023-03-01T12:51:32;6.50;99.90
11656;DHT22;5884;43.618;1.438;2023-03-01T12:54:07;6.50;99.90
11656;DHT22;5884;43.618;1.438;2023-03-01T12:56:43;6.50;99.90
11656;DHT22;5884;43.618;1.438;2023-03-01T12:59:19;6.50;99.90
11656;DHT22;5884;43.618;1.438;2023-03-01T13:01:55;6.40;99.90
11656;DHT22;5884;43.618;1.438;2023-03-01T13:04:40;6.50;99.90
11656;DHT22;5884;43.618;1.438;2023-03-01T13:07:27;6.40;99.90
11656;DHT22;5884;43.618;1.438;2023-03-01T13:10:06;6.30;99.90
11656;DHT22;5884;43.618;1.438;2023-03-01T13:13:02;6.40;99.90
11656;DHT22;5884;43.618;1.438;2023-03-01T13:15:39;6.50;99.90
11656;DHT22;5884;43.618;1.438;2023-03-01T13:18:29;6.40;99.90
11656;DHT22;5884;43.618;1.438;2023-03-01T13:21:02;6.30;99.90
11656;DHT22;5884;43.618;1.438;2023-03-01T13:23:34;6.40;99.90
11656;DHT22;5884;43.618;1.438;2023-03-01T13:26:11;6.50;99.90
11656;DHT22;5884;43.618;1.438;2023-03-01T13:28:53;6.50;99.90
11656;DHT22;5884;43.618;1.438;2023-03-01T13:34:42;6.40;99.90
11656;DHT22;5884;43.618;1.438;2023-03-01T13:43:32;6.60;99.90
11656;DHT22;5884;43.618;1.438;2023-03-01T13:46:02;6.70;99.90
11656;DHT22;5884;43.618;1.438;2023-03-01T13:48:37;6.70;99.90
11656;DHT22;5884;43.618;1.438;2023-03-01T13:51:08;6.70;99.90
11656;DHT22;5884;43.618;1.438;2023-03-01T13:53:40;6.70;99.90
11656;DHT22;5884;43.618;1.438;2023-03-01T13:56:12;6.80;99.90
11656;DHT22;5884;43.618;1.438;2023-03-01T13:58:49;6.80;99.90
11656;DHT22;5884;43.618;1.438;2023-03-01T14:01:27;6.80;99.90
11656;DHT22;5884;43.618;1.438;2023-03-01T14:03:56;6.80;99.90
11656;DHT22;5884;43.618;1.438;2023-03-01T14:06:26;6.80;99.90
11656;DHT22;5884;43.618;1.438;2023-03-01T14:09:03;6.90;99.90
11656;DHT22;5884;43.618;1.438;2023-03-01T14:11:57;6.90;99.90
11656;DHT22;5884;43.618;1.438;2023-03-01T14:14:42;6.70;99.90
11656;DHT22;5884;43.618;1.438;2023-03-01T14:20:21;6.90;99.90
11656;DHT22;5884;43.618;1.438;2023-03-01T14:22:52;7.00;99.90
11656;DHT22;5884;43.618;1.438;2023-03-01T14:25:27;7.10;99.90
11656;DHT22;5884;43.618;1.438;2023-03-01T14:28:02;7.20;99.90
11656;DHT22;5884;43.618;1.438;2023-03-01T14:30:34;7.10;99.90
11656;DHT22;5884;43.618;1.438;2023-03-01T14:33:06;7.20;99.90
11656;DHT22;5884;43.618;1.438;2023-03-01T14:35:54;7.10;99.90
11656;DHT22;5884;43.618;1.438;2023-03-01T14:38:23;7.20;99.90
11656;DHT22;5884;43.618;1.438;2023-03-01T14:40:58;7.20;99.90
11656;DHT22;5884;43.618;1.438;2023-03-01T14:43:27;7.10;99.90
11656;DHT22;5884;43.618;1.438;2023-03-01T14:45:56;7.10;99.90
11656;DHT22;5884;43.618;1.438;2023-03-01T14:48:26;7.00;99.90
11656;DHT22;5884;43.618;1.438;2023-03-01T14:50:54;7.00;99.90
11656;DHT22;5884;43.618;1.438;2023-03-01T14:53:23;6.90;99.90
11656;DHT22;5884;43.618;1.438;2023-03-01T14:55:53;7.10;99.90
11656;DHT22;5884;43.618;1.438;2023-03-01T14:58:24;7.10;99.90
11656;DHT22;5884;43.618;1.438;2023-03-01T15:00:53;7.10;99.90
11656;DHT22;5884;43.618;1.438;2023-03-01T15:03:27;7.10;99.90
11656;DHT22;5884;43.618;1.438;2023-03-01T15:06:01;7.20;99.90
11656;DHT22;5884;43.618;1.438;2023-03-01T15:08:28;7.10;99.90
11656;DHT22;5884;43.618;1.438;2023-03-01T15:11:04;7.20;99.90
11656;DHT22;5884;43.618;1.438;2023-03-01T15:13:33;7.20;99.90
11656;DHT22;5884;43.618;1.438;2023-03-01T15:16:09;7.30;99.90
11656;DHT22;5884;43.618;1.438;2023-03-01T15:18:44;7.40;99.90
11656;DHT22;5884;43.618;1.438;2023-03-01T15:21:18;7.20;99.90
11656;DHT22;5884;43.618;1.438;2023-03-01T15:23:50;7.10;99.90
11656;DHT22;5884;43.618;1.438;2023-03-01T15:26:28;7.00;99.90
11656;DHT22;5884;43.618;1.438;2023-03-01T15:28:58;7.00;99.90
11656;DHT22;5884;43.618;1.438;2023-03-01T15:31:28;7.00;99.90
11656;DHT22;5884;43.618;1.438;2023-03-01T15:34:21;7.00;99.90
11656;DHT22;5884;43.618;1.438;2023-03-01T15:36:50;7.00;99.90
11656;DHT22;5884;43.618;1.438;2023-03-01T15:39:37;7.00;99.90
11656;DHT22;5884;43.618;1.438;2023-03-01T15:42:10;6.90;99.90
11656;DHT22;5884;43.618;1.438;2023-03-01T15:44:40;7.00;99.90
11656;DHT22;5884;43.618;1.438;2023-03-01T15:47:25;7.10;99.90
11656;DHT22;5884;43.618;1.438;2023-03-01T15:49:57;7.10;99.90
11656;DHT22;5884;43.618;1.438;2023-03-01T15:52:27;7.10;99.90
11656;DHT22;5884;43.618;1.438;2023-03-01T15:54:58;7.10;99.90
11656;DHT22;5884;43.618;1.438;2023-03-01T15:57:26;7.10;99.90
11656;DHT22;5884;43.618;1.438;2023-03-01T15:59:54;7.00;99.90
11656;DHT22;5884;43.618;1.438;2023-03-01T16:02:21;7.00;99.90
11656;DHT22;5884;43.618;1.438;2023-03-01T16:04:49;7.00;99.90
11656;DHT22;5884;43.618;1.438;2023-03-01T16:07:18;7.00;99.90
11656;DHT22;5884;43.618;1.438;2023-03-01T16:09:45;7.00;99.90
11656;DHT22;5884;43.618;1.438;2023-03-01T16:12:14;7.00;99.90
11656;DHT22;5884;43.618;1.438;2023-03-01T16:14:42;7.00;99.90
11656;DHT22;5884;43.618;1.438;2023-03-01T16:17:09;6.90;99.90
11656;DHT22;5884;43.618;1.438;2023-03-01T16:19:37;6.80;99.90
11656;DHT22;5884;43.618;1.438;2023-03-01T16:22:04;6.90;99.90
11656;DHT22;5884;43.618;1.438;2023-03-01T16:24:33;6.80;99.90
11656;DHT22;5884;43.618;1.438;2023-03-01T16:27:01;6.80;99.90
11656;DHT22;5884;43.618;1.438;2023-03-01T16:29:29;6.80;99.90
11656;DHT22;5884;43.618;1.438;2023-03-01T16:31:56;6.80;99.90
11656;DHT22;5884;43.618;1.438;2023-03-01T16:34:23;6.70;99.90
11656;DHT22;5884;43.618;1.438;2023-03-01T16:36:51;6.80;99.90
11656;DHT22;5884;43.618;1.438;2023-03-01T16:39:18;6.70;99.90
11656;DHT22;5884;43.618;1.438;2023-03-01T16:41:47;6.60;99.90
11656;DHT22;5884;43.618;1.438;2023-03-01T16:44:14;6.60;99.90
11656;DHT22;5884;43.618;1.438;2023-03-01T16:46:42;6.50;99.90
11656;DHT22;5884;43.618;1.438;2023-03-01T16:49:09;6.50;99.90
11656;DHT22;5884;43.618;1.438;2023-03-01T16:51:36;6.40;99.90
11656;DHT22;5884;43.618;1.438;2023-03-01T16:54:04;6.40;99.90
11656;DHT22;5884;43.618;1.438;2023-03-01T16:56:31;6.40;99.90
11656;DHT22;5884;43.618;1.438;2023-03-01T16:59:02;6.30;99.90
11656;DHT22;5884;43.618;1.438;2023-03-01T17:01:30;6.20;99.90
11656;DHT22;5884;43.618;1.438;2023-03-01T17:04:03;6.20;99.90
11656;DHT22;5884;43.618;1.438;2023-03-01T17:06:30;6.20;99.90
11656;DHT22;5884;43.618;1.438;2023-03-01T17:08:58;6.10;99.90
11656;DHT22;5884;43.618;1.438;2023-03-01T17:11:25;6.10;99.90
11656;DHT22;5884;43.618;1.438;2023-03-01T17:13:53;6.00;99.90
11656;DHT22;5884;43.618;1.438;2023-03-01T17:16:22;5.90;99.90
11656;DHT22;5884;43.618;1.438;2023-03-01T17:18:49;5.90;99.90
11656;DHT22;5884;43.618;1.438;2023-03-01T17:21:17;5.90;99.90
11656;DHT22;5884;43.618;1.438;2023-03-01T17:23:45;5.70;99.90
11656;DHT22;5884;43.618;1.438;2023-03-01T17:26:15;5.70;99.90
11656;DHT22;5884;43.618;1.438;2023-03-01T17:28:42;5.60;99.90
11656;DHT22;5884;43.618;1.438;2023-03-01T17:31:09;5.70;99.90
11656;DHT22;5884;43.618;1.438;2023-03-01T17:33:38;5.70;99.90
11656;DHT22;5884;43.618;1.438;2023-03-01T17:36:06;5.50;99.90
11656;DHT22;5884;43.618;1.438;2023-03-01T17:38:33;5.50;99.90
11656;DHT22;5884;43.618;1.438;2023-03-01T17:41:01;5.40;99.90
11656;DHT22;5884;43.618;1.438;2023-03-01T17:43:29;5.40;99.90
11656;DHT22;5884;43.618;1.438;2023-03-01T17:45:58;5.30;99.90
11656;DHT22;5884;43.618;1.438;2023-03-01T17:48:26;5.30;99.90
11656;DHT22;5884;43.618;1.438;2023-03-01T17:50:55;5.20;99.90
11656;DHT22;5884;43.618;1.438;2023-03-01T17:53:22;5.20;99.90
11656;DHT22;5884;43.618;1.438;2023-03-01T17:55:55;5.20;99.90
11656;DHT22;5884;43.618;1.438;2023-03-01T17:58:25;5.00;99.90
11656;DHT22;5884;43.618;1.438;2023-03-01T18:00:52;5.00;99.90
11656;DHT22;5884;43.618;1.438;2023-03-01T18:03:20;5.00;99.90
11656;DHT22;5884;43.618;1.438;2023-03-01T18:05:47;4.90;99.90
11656;DHT22;5884;43.618;1.438;2023-03-01T18:08:16;4.90;99.90
11656;DHT22;5884;43.618;1.438;2023-03-01T18:10:45;4.90;99.90
11656;DHT22;5884;43.618;1.438;2023-03-01T18:13:12;4.80;99.90
11656;DHT22;5884;43.618;1.438;2023-03-01T18:15:39;4.80;99.90
11656;DHT22;5884;43.618;1.438;2023-03-01T18:18:06;4.80;99.90
11656;DHT22;5884;43.618;1.438;2023-03-01T18:20:34;4.70;99.90
11656;DHT22;5884;43.618;1.438;2023-03-01T18:23:01;4.70;99.90
11656;DHT22;5884;43.618;1.438;2023-03-01T18:25:30;4.60;99.90
11656;DHT22;5884;43.618;1.438;2023-03-01T18:27:57;4.60;99.90
11656;DHT22;5884;43.618;1.438;2023-03-01T18:30:26;4.60;99.90
11656;DHT22;5884;43.618;1.438;2023-03-01T18:32:53;4.60;99.90
11656;DHT22;5884;43.618;1.438;2023-03-01T18:35:21;4.60;99.90
11656;DHT22;5884;43.618;1.438;2023-03-01T18:37:49;4.60;99.90
11656;DHT22;5884;43.618;1.438;2023-03-01T18:40:16;4.50;99.90
11656;DHT22;5884;43.618;1.438;2023-03-01T18:42:45;4.50;99.90
11656;DHT22;5884;43.618;1.438;2023-03-01T18:45:12;4.40;99.90
11656;DHT22;5884;43.618;1.438;2023-03-01T18:47:41;4.40;99.90
11656;DHT22;5884;43.618;1.438;2023-03-01T18:50:09;4.40;99.90
11656;DHT22;5884;43.618;1.438;2023-03-01T18:52:37;4.30;99.90
11656;DHT22;5884;43.618;1.438;2023-03-01T18:55:05;4.30;99.90
11656;DHT22;5884;43.618;1.438;2023-03-01T18:57:32;4.30;99.90
11656;DHT22;5884;43.618;1.438;2023-03-01T19:00:01;4.30;99.90
11656;DHT22;5884;43.618;1.438;2023-03-01T19:02:28;4.20;99.90
11656;DHT22;5884;43.618;1.438;2023-03-01T19:04:55;4.20;99.90
11656;DHT22;5884;43.618;1.438;2023-03-01T19:07:23;4.20;99.90
11656;DHT22;5884;43.618;1.438;2023-03-01T19:09:50;4.10;99.90
11656;DHT22;5884;43.618;1.438;2023-03-01T19:12:18;4.10;99.90
11656;DHT22;5884;43.618;1.438;2023-03-01T19:14:45;4.00;99.90
11656;DHT22;5884;43.618;1.438;2023-03-01T19:17:14;4.00;99.90
11656;DHT22;5884;43.618;1.438;2023-03-01T19:19:41;4.00;99.90
11656;DHT22;5884;43.618;1.438;2023-03-01T19:22:08;4.00;99.90
11656;DHT22;5884;43.618;1.438;2023-03-01T19:24:35;3.90;99.90
11656;DHT22;5884;43.618;1.438;2023-03-01T19:27:03;3.90;99.90
11656;DHT22;5884;43.618;1.438;2023-03-01T19:29:30;3.90;99.90
11656;DHT22;5884;43.618;1.438;2023-03-01T19:31:57;3.90;99.90
11656;DHT22;5884;43.618;1.438;2023-03-01T19:34:26;3.80;99.90
11656;DHT22;5884;43.618;1.438;2023-03-01T19:36:53;3.80;99.90
11656;DHT22;5884;43.618;1.438;2023-03-01T19:39:20;3.70;99.90
11656;DHT22;5884;43.618;1.438;2023-03-01T19:41:47;3.70;99.90
11656;DHT22;5884;43.618;1.438;2023-03-01T19:44:15;3.70;99.90
11656;DHT22;5884;43.618;1.438;2023-03-01T19:46:42;3.70;99.90
11656;DHT22;5884;43.618;1.438;2023-03-01T19:49:09;3.70;99.90
11656;DHT22;5884;43.618;1.438;2023-03-01T19:51:38;3.60;99.90
11656;DHT22;5884;43.618;1.438;2023-03-01T19:54:05;3.50;99.90
11656;DHT22;5884;43.618;1.438;2023-03-01T19:56:34;3.50;99.90
11656;DHT22;5884;43.618;1.438;2023-03-01T19:59:01;3.50;99.90
11656;DHT22;5884;43.618;1.438;2023-03-01T20:01:29;3.50;99.90
11656;DHT22;5884;43.618;1.438;2023-03-01T20:03:58;3.40;99.90
11656;DHT22;5884;43.618;1.438;2023-03-01T20:06:26;3.40;99.90
11656;DHT22;5884;43.618;1.438;2023-03-01T20:08:55;3.40;99.90
11656;DHT22;5884;43.618;1.438;2023-03-01T20:11:23;3.40;99.90
11656;DHT22;5884;43.618;1.438;2023-03-01T20:13:50;3.40;99.90
11656;DHT22;5884;43.618;1.438;2023-03-01T20:16:18;3.40;99.90
11656;DHT22;5884;43.618;1.438;2023-03-01T20:18:47;3.40;99.90
11656;DHT22;5884;43.618;1.438;2023-03-01T20:21:14;3.30;99.90
11656;DHT22;5884;43.618;1.438;2023-03-01T20:23:43;3.30;99.90
11656;DHT22;5884;43.618;1.438;2023-03-01T20:26:12;3.30;99.90
11656;DHT22;5884;43.618;1.438;2023-03-01T20:28:44;3.30;99.90
11656;DHT22;5884;43.618;1.438;2023-03-01T20:31:13;3.20;99.90
11656;DHT22;5884;43.618;1.438;2023-03-01T20:33:42;3.20;99.90
11656;DHT22;5884;43.618;1.438;2023-03-01T20:36:10;3.20;99.90
11656;DHT22;5884;43.618;1.438;2023-03-01T20:38:37;3.10;99.90
11656;DHT22;5884;43.618;1.438;2023-03-01T20:41:07;3.10;99.90
11656;DHT22;5884;43.618;1.438;2023-03-01T20:43:37;3.10;99.90
11656;DHT22;5884;43.618;1.438;2023-03-01T20:46:05;3.20;99.90
11656;DHT22;5884;43.618;1.438;2023-03-01T20:48:33;3.10;99.90
11656;DHT22;5884;43.618;1.438;2023-03-01T20:51:04;3.10;99.90
11656;DHT22;5884;43.618;1.438;2023-03-01T20:53:32;3.10;99.90
11656;DHT22;5884;43.618;1.438;2023-03-01T20:56:01;3.10;99.90
11656;DHT22;5884;43.618;1.438;2023-03-01T20:58:29;3.10;99.90
11656;DHT22;5884;43.618;1.438;2023-03-01T21:00:59;3.10;99.90
11656;DHT22;5884;43.618;1.438;2023-03-01T21:03:26;3.10;99.90
11656;DHT22;5884;43.618;1.438;2023-03-01T21:05:54;3.10;99.90
11656;DHT22;5884;43.618;1.438;2023-03-01T21:08:22;3.10;99.90
11656;DHT22;5884;43.618;1.438;2023-03-01T21:10:49;3.10;99.90
11656;DHT22;5884;43.618;1.438;2023-03-01T21:13:17;3.10;99.90
11656;DHT22;5884;43.618;1.438;2023-03-01T21:15:51;3.00;99.90
11656;DHT22;5884;43.618;1.438;2023-03-01T21:18:20;3.10;99.90
11656;DHT22;5884;43.618;1.438;2023-03-01T21:20:48;3.00;99.90
11656;DHT22;5884;43.618;1.438;2023-03-01T21:23:15;3.00;99.90
11656;DHT22;5884;43.618;1.438;2023-03-01T21:25:44;3.00;99.90
11656;DHT22;5884;43.618;1.438;2023-03-01T21:28:11;3.00;99.90
11656;DHT22;5884;43.618;1.438;2023-03-01T21:30:38;3.00;99.90
11656;DHT22;5884;43.618;1.438;2023-03-01T21:33:05;3.00;99.90
11656;DHT22;5884;43.618;1.438;2023-03-01T21:35:34;2.90;99.90
11656;DHT22;5884;43.618;1.438;2023-03-01T21:38:01;2.90;99.90
11656;DHT22;5884;43.618;1.438;2023-03-01T21:40:28;2.90;99.90
11656;DHT22;5884;43.618;1.438;2023-03-01T21:42:55;2.90;99.90
11656;DHT22;5884;43.618;1.438;2023-03-01T21:45:23;2.90;99.90
11656;DHT22;5884;43.618;1.438;2023-03-01T21:47:50;2.80;99.90
11656;DHT22;5884;43.618;1.438;2023-03-01T21:50:17;2.80;99.90
11656;DHT22;5884;43.618;1.438;2023-03-01T21:52:46;2.80;99.90
11656;DHT22;5884;43.618;1.438;2023-03-01T21:55:13;2.80;99.90
11656;DHT22;5884;43.618;1.438;2023-03-01T21:57:41;2.70;99.90
